Time;durP1;ratioP1;P1;durP2;ratioP2;P2;SDS_P1;SDS_P2;PMS_P1;PMS_P2;Temp;Humidity;BMP_temperature;BMP_pressure;BME280_temperature;BME280_humidity;BME280_pressure;Samples;Min_cycle;Max_cycle;Signal;HPM_P1;HPM_P2
2022/06/26 00:00:24;;;;;;;;;;;;;;;22.43;64.27;100595.78;7406693;19;1422;-36
2022/06/26 00:02:52;;;;;;;;;;;;;;;22.30;64.33;100597.22;7407944;19;1596;-36
2022/06/26 00:05:26;;;;;;;;;;;;;;;22.17;64.94;100600.34;7406762;19;2043;-37
2022/06/26 00:07:55;;;;;;;;;;;;;;;22.13;64.98;100607.91;7407877;19;1751;-36
2022/06/26 00:10:26;;;;;;;;;;;;;;;22.04;65.31;100609.72;7409130;19;1040;-36
2022/06/26 00:12:59;;;;;;;;;;;;;;;22.09;65.20;100616.47;7407557;19;2043;-36
2022/06/26 00:15:30;;;;;;;;;;;;;;;22.28;64.55;100618.94;7407970;19;2319;-36
2022/06/26 00:18:01;;;;;;;;;;;;;;;22.30;64.65;100622.31;7407454;19;1850;-36
2022/06/26 00:20:45;;;;;;;;;;;;;;;22.27;64.88;100602.97;7407758;19;1666;-36
2022/06/26 00:23:16;;;;;;;;;;;;;;;22.29;64.70;100600.94;7406337;19;1627;-36
2022/06/26 00:25:48;;;;;;;;;;;;;;;22.22;64.58;100612.34;7408076;19;1575;-36
2022/06/26 00:28:18;;;;;;;;;;;;;;;22.30;64.68;100616.94;7405419;19;1740;-36
2022/06/26 00:30:50;;;;;;;;;;;;;;;22.39;64.91;100613.28;7407112;19;1809;-36
2022/06/26 00:33:19;;;;;;;;;;;;;;;22.28;64.74;100621.63;7407584;19;1847;-36
2022/06/26 00:35:47;;;;;;;;;;;;;;;22.32;65.00;100627.53;7406708;19;1646;-36
2022/06/26 00:38:23;;;;;;;;;;;;;;;22.31;64.74;100621.31;7404744;19;1744;-36
2022/06/26 00:40:55;;;;;;;;;;;;;;;22.38;64.99;100630.47;7407245;19;1823;-36
2022/06/26 00:43:30;;;;;;;;;;;;;;;22.36;65.00;100645.06;7406099;19;1888;-36
2022/06/26 00:46:03;;;;;;;;;;;;;;;22.28;64.91;100647.72;7406942;19;1817;-36
2022/06/26 00:48:33;;;;;;;;;;;;;;;22.29;65.38;100630.56;7406517;19;1809;-36
2022/06/26 00:51:03;;;;;;;;;;;;;;;22.32;65.02;100641.88;7405792;19;1626;-36
2022/06/26 00:53:39;;;;;;;;;;;;;;;22.31;64.99;100639.34;7405679;19;1922;-36
2022/06/26 00:56:11;;;;;;;;;;;;;;;22.30;64.89;100651.09;7405894;19;1847;-36
2022/06/26 00:58:40;;;;;;;;;;;;;;;22.17;64.98;100633.50;7407295;19;1737;-36
2022/06/26 01:01:12;;;;;;;;;;;;;;;22.33;65.18;100645.41;7406354;19;1902;-37
2022/06/26 01:03:43;;;;;;;;;;;;;;;22.32;64.62;100647.28;7405080;19;1899;-36
2022/06/26 01:06:14;;;;;;;;;;;;;;;22.34;64.96;100647.97;7404671;19;2009;-36
2022/06/26 01:08:54;;;;;;;;;;;;;;;22.44;65.09;100669.38;7406822;19;1670;-36
2022/06/26 01:11:23;;;;;;;;;;;;;;;22.40;65.09;100662.59;7402978;19;1831;-37
2022/06/26 01:13:52;;;;;;;;;;;;;;;22.38;64.97;100653.84;7404744;19;1850;-36
2022/06/26 01:16:22;;;;;;;;;;;;;;;22.40;65.21;100663.47;7404973;19;1646;-36
2022/06/26 01:18:51;;;;;;;;;;;;;;;22.28;65.12;100647.72;7405583;19;1696;-36
2022/06/26 01:21:20;;;;;;;;;;;;;;;22.24;65.25;100658.84;7404878;19;1878;-36
2022/06/26 01:26:47;;;;;;;;;;;;;;;22.25;65.29;100662.38;7403929;19;2272;-36
2022/06/26 01:29:27;;;;;;;;;;;;;;;22.27;65.03;100667.59;7403684;19;1994;-36
2022/06/26 01:32:02;;;;;;;;;;;;;;;22.24;65.11;100658.84;7406279;19;1736;-36
2022/06/26 01:35:01;;;;;;;;;;;;;;;22.13;65.56;100669.84;7404178;19;1851;-36
2022/06/26 01:37:36;;;;;;;;;;;;;;;22.17;65.33;100668.53;7404747;19;1635;-36
2022/06/26 01:40:13;;;;;;;;;;;;;;;22.18;65.35;100675.59;7405934;19;1440;-36
2022/06/26 01:42:50;;;;;;;;;;;;;;;22.29;65.17;100671.81;7403618;19;1624;-37
2022/06/26 01:45:25;;;;;;;;;;;;;;;22.14;65.71;100689.53;7404508;19;1619;-37
2022/06/26 01:47:59;;;;;;;;;;;;;;;22.15;65.66;100670.53;7405491;19;1584;-36
2022/06/26 01:53:34;;;;;;;;;;;;;;;22.11;65.58;100679.94;7401932;19;2268;-36
2022/06/26 01:56:14;;;;;;;;;;;;;;;22.18;65.80;100675.59;7404964;19;1871;-36
2022/06/26 01:58:48;;;;;;;;;;;;;;;22.23;65.68;100675.97;7403490;19;1782;-36
2022/06/26 02:01:18;;;;;;;;;;;;;;;22.21;65.38;100677.97;7390606;19;3521;-58
2022/06/26 02:03:46;;;;;;;;;;;;;;;22.20;65.27;100688.91;7405076;19;1605;-58
2022/06/26 02:06:14;;;;;;;;;;;;;;;22.21;65.41;100675.28;7406315;19;1474;-58
2022/06/26 02:08:43;;;;;;;;;;;;;;;22.20;65.50;100676.28;7405298;19;1589;-58
2022/06/26 02:13:54;;;;;;;;;;;;;;;22.20;65.13;100679.00;7402792;19;1849;-58
2022/06/26 02:16:24;;;;;;;;;;;;;;;22.10;65.61;100678.22;7405509;19;1577;-58
2022/06/26 02:18:54;;;;;;;;;;;;;;;22.04;65.96;100662.69;7406602;19;1629;-58
2022/06/26 02:21:23;;;;;;;;;;;;;;;22.01;65.92;100671.13;7405532;19;1640;-58
2022/06/26 02:23:52;;;;;;;;;;;;;;;21.97;66.05;100683.19;7406255;19;1562;-58
2022/06/26 02:26:24;;;;;;;;;;;;;;;22.04;65.75;100681.56;7407083;19;1636;-58
2022/06/26 02:28:52;;;;;;;;;;;;;;;22.01;65.87;100681.88;7405702;19;1522;-58
2022/06/26 02:31:21;;;;;;;;;;;;;;;22.12;65.91;100670.81;7406642;19;1688;-58
2022/06/26 02:33:49;;;;;;;;;;;;;;;22.26;65.59;100671.28;7405829;19;1890;-58
2022/06/26 02:36:18;;;;;;;;;;;;;;;22.22;65.37;100655.44;7405962;19;1427;-58
2022/06/26 02:38:46;;;;;;;;;;;;;;;22.27;65.25;100689.16;7406994;19;1498;-58
2022/06/26 02:41:15;;;;;;;;;;;;;;;22.24;65.58;100674.13;7406684;19;1553;-58
2022/06/26 02:43:45;;;;;;;;;;;;;;;22.30;65.49;100680.75;7402030;19;1779;-58
2022/06/26 02:46:14;;;;;;;;;;;;;;;22.17;65.45;100676.59;7404567;19;1384;-58
2022/06/26 02:48:42;;;;;;;;;;;;;;;22.01;66.23;100673.81;7405496;19;1542;-58
2022/06/26 02:51:11;;;;;;;;;;;;;;;22.03;66.21;100678.03;7404806;19;1580;-58
2022/06/26 02:53:39;;;;;;;;;;;;;;;22.14;65.71;100679.59;7403656;19;1605;-58
2022/06/26 02:56:07;;;;;;;;;;;;;;;22.20;65.88;100673.59;7404631;19;1896;-58
2022/06/26 02:58:36;;;;;;;;;;;;;;;22.18;65.67;100683.69;7403819;19;1348;-58
2022/06/26 03:01:07;;;;;;;;;;;;;;;22.08;66.01;100672.16;7402581;19;1410;-58
2022/06/26 03:03:35;;;;;;;;;;;;;;;22.02;65.99;100665.56;7404752;19;1336;-58
2022/06/26 03:06:03;;;;;;;;;;;;;;;22.16;66.02;100690.22;7403531;19;1138;-58
2022/06/26 03:08:32;;;;;;;;;;;;;;;22.23;65.74;100681.34;7404108;19;1347;-58
2022/06/26 03:11:00;;;;;;;;;;;;;;;22.14;65.88;100666.13;7403080;19;1378;-58
2022/06/26 03:13:28;;;;;;;;;;;;;;;22.16;65.74;100671.38;7403747;19;1503;-58
2022/06/26 03:15:57;;;;;;;;;;;;;;;22.19;65.97;100677.28;7402436;19;1869;-58
2022/06/26 03:18:28;;;;;;;;;;;;;;;22.27;65.94;100678.38;7402840;19;1332;-58
2022/06/26 03:20:56;;;;;;;;;;;;;;;22.15;66.04;100692.06;7402218;19;1762;-58
2022/06/26 03:24:00;;;;;;;;;;;;;;;22.24;65.82;100685.78;7403641;19;1382;-58
2022/06/26 03:26:12;;;;;;;;;;;;;;;22.25;65.60;100686.63;7404839;19;1919;-58
2022/06/26 03:28:41;;;;;;;;;;;;;;;22.27;65.59;100694.53;7400303;19;1680;-58
2022/06/26 03:31:09;;;;;;;;;;;;;;;22.29;65.47;100695.22;7404600;19;1643;-58
2022/06/26 03:33:40;;;;;;;;;;;;;;;22.26;65.80;100687.44;7403333;19;1383;-58
2022/06/26 03:36:09;;;;;;;;;;;;;;;22.15;66.01;100699.31;7401827;19;1866;-58
2022/06/26 03:38:38;;;;;;;;;;;;;;;22.22;66.03;100698.53;7403565;19;1335;-58
2022/06/26 03:41:09;;;;;;;;;;;;;;;22.24;65.94;100685.78;7401676;19;1577;-58
2022/06/26 03:43:38;;;;;;;;;;;;;;;22.18;66.08;100674.75;7403755;19;1760;-58
2022/06/26 03:46:06;;;;;;;;;;;;;;;22.09;66.22;100687.31;7403030;19;1645;-58
2022/06/26 03:48:35;;;;;;;;;;;;;;;22.07;66.47;100678.56;7404501;19;1561;-58
2022/06/26 03:51:06;;;;;;;;;;;;;;;22.00;66.71;100709.78;7403624;19;1598;-58
2022/06/26 03:53:35;;;;;;;;;;;;;;;21.85;67.47;100702.28;7403629;19;1899;-58
2022/06/26 03:56:04;;;;;;;;;;;;;;;21.95;67.31;100704.06;7402704;19;1854;-58
2022/06/26 03:58:33;;;;;;;;;;;;;;;22.13;66.57;100688.69;7403060;19;1672;-58
2022/06/26 04:01:01;;;;;;;;;;;;;;;22.15;66.63;100689.38;7399972;19;1553;-58
2022/06/26 04:03:29;;;;;;;;;;;;;;;22.11;67.10;100706.84;7403162;19;1523;-58
2022/06/26 04:05:57;;;;;;;;;;;;;;;22.15;66.72;100712.78;7403069;19;1620;-58
2022/06/26 04:08:29;;;;;;;;;;;;;;;22.14;66.73;100706.53;7403287;19;1610;-58
2022/06/26 04:10:57;;;;;;;;;;;;;;;22.18;66.46;100705.25;7403832;19;1470;-58
2022/06/26 04:13:25;;;;;;;;;;;;;;;22.20;66.69;100722.09;7403784;19;1364;-58
2022/06/26 04:15:54;;;;;;;;;;;;;;;22.25;66.63;100721.63;7399293;19;1858;-58
2022/06/26 04:18:22;;;;;;;;;;;;;;;22.12;67.16;100716.63;7402051;19;1687;-58
2022/06/26 04:20:50;;;;;;;;;;;;;;;22.16;66.95;100726.09;7402976;19;1538;-58
2022/06/26 04:23:19;;;;;;;;;;;;;;;22.16;67.06;100726.09;7402704;19;1636;-58
2022/06/26 04:25:50;;;;;;;;;;;;;;;22.31;66.32;100728.25;7403485;19;1442;-58
2022/06/26 04:28:18;;;;;;;;;;;;;;;;;;7398783;19;1739;-58
2022/06/26 04:30:46;;;;;;;;;;;;;;;22.35;66.50;100725.06;7401863;19;1478;-58
2022/06/26 04:33:14;;;;;;;;;;;;;;;22.39;66.36;100718.34;7409552;19;1103;-58
2022/06/26 04:35:43;;;;;;;;;;;;;;;22.44;65.75;100734.91;7408826;19;1853;-58
2022/06/26 04:38:11;;;;;;;;;;;;;;;22.49;65.68;100744.34;7409053;19;1736;-58
2022/06/26 04:40:39;;;;;;;;;;;;;;;22.52;65.64;100741.31;7409192;19;1607;-58
2022/06/26 04:43:11;;;;;;;;;;;;;;;22.50;65.74;100744.19;7410867;19;1506;-58
2022/06/26 04:45:41;;;;;;;;;;;;;;;22.54;65.63;100733.94;7408918;19;1340;-58
2022/06/26 04:48:10;;;;;;;;;;;;;;;22.55;65.54;100746.41;7407385;19;1672;-58
2022/06/26 04:50:38;;;;;;;;;;;;;;;22.60;65.19;100747.63;7405521;19;1419;-58
2022/06/26 04:53:06;;;;;;;;;;;;;;;22.66;65.16;100754.22;7405138;19;1655;-58
2022/06/26 04:55:35;;;;;;;;;;;;;;;22.67;65.32;100738.91;7406705;19;1863;-58
2022/06/26 04:58:03;;;;;;;;;;;;;;;22.67;65.10;100749.69;7407681;19;1521;-58
2022/06/26 05:00:35;;;;;;;;;;;;;;;22.60;65.32;100753.00;7405973;19;1344;-58
2022/06/26 05:03:03;;;;;;;;;;;;;;;22.79;64.66;100762.72;7409618;19;1481;-58
2022/06/26 05:05:31;;;;;;;;;;;;;;;22.95;64.44;100743.06;7407671;19;1677;-58
2022/06/26 05:08:00;;;;;;;;;;;;;;;23.11;64.42;100765.75;7407196;19;1525;-58
2022/06/26 05:10:28;;;;;;;;;;;;;;;23.10;64.64;100761.34;7409046;19;1612;-58
2022/06/26 05:12:56;;;;;;;;;;;;;;;23.06;65.13;100766.25;7407627;19;1514;-58
2022/06/26 05:15:25;;;;;;;;;;;;;;;22.72;66.06;100752.72;7406953;19;1845;-58
2022/06/26 05:17:56;;;;;;;;;;;;;;;22.81;65.71;100781.44;7408380;19;1537;-54
2022/06/26 05:20:24;;;;;;;;;;;;;;;22.96;65.40;100774.44;7407875;19;1430;-57
2022/06/26 05:22:52;;;;;;;;;;;;;;;22.96;65.14;100779.81;7407870;19;1633;-58
2022/06/26 05:25:21;;;;;;;;;;;;;;;23.01;65.08;100773.94;7409843;19;984;-58
2022/06/26 05:27:49;;;;;;;;;;;;;;;23.02;65.02;100767.59;7405404;19;1641;-58
2022/06/26 05:30:17;;;;;;;;;;;;;;;23.15;64.68;100783.31;7406467;19;1715;-58
2022/06/26 05:32:46;;;;;;;;;;;;;;;23.15;64.95;100772.50;7406598;19;1633;-58
2022/06/26 05:35:17;;;;;;;;;;;;;;;23.22;64.85;100765.47;7405601;19;1858;-57
2022/06/26 05:37:45;;;;;;;;;;;;;;;23.20;65.19;100775.56;7406167;19;1445;-58
2022/06/26 05:40:14;;;;;;;;;;;;;;;23.19;65.08;100781.97;7408903;19;1627;-57
2022/06/26 05:42:42;;;;;;;;;;;;;;;23.15;65.54;100784.13;7405373;19;1360;-57
2022/06/26 05:45:11;;;;;;;;;;;;;;;23.12;65.12;100797.09;7407163;19;1591;-57
2022/06/26 05:47:39;;;;;;;;;;;;;;;23.26;65.50;100804.59;7405327;19;1266;-57
2022/06/26 05:50:08;;;;;;;;;;;;;;;23.35;65.14;100776.63;7407483;19;1660;-58
2022/06/26 05:52:38;;;;;;;;;;;;;;;23.30;65.63;100784.38;7407280;19;1450;-57
2022/06/26 05:55:07;;;;;;;;;;;;;;;23.31;65.52;100780.66;7407090;19;1871;-60
2022/06/26 05:57:35;;;;;;;;;;;;;;;23.37;66.21;100782.69;7405144;19;1534;-58
2022/06/26 06:00:04;;;;;;;;;;;;;;;23.45;66.89;100781.03;7406685;19;1544;-60
2022/06/26 06:02:32;;;;;;;;;;;;;;;23.42;66.41;100783.06;7404374;19;1325;-60
2022/06/26 06:05:00;;;;;;;;;;;;;;;23.48;66.58;100783.44;7406164;19;1475;-60
2022/06/26 06:07:29;;;;;;;;;;;;;;;23.46;65.96;100780.00;7406869;19;1479;-59
2022/06/26 06:10:00;;;;;;;;;;;;;;;23.46;66.85;100782.72;7406796;19;1551;-64
2022/06/26 06:12:29;;;;;;;;;;;;;;;23.61;66.95;100798.09;7405252;19;1570;-59
2022/06/26 06:14:57;;;;;;;;;;;;;;;23.66;67.21;100781.44;7405513;19;1427;-56
2022/06/26 06:20:07;;;;;;;;;;;;;;;23.61;66.57;100794.56;7404221;19;1343;-59
2022/06/26 06:22:35;;;;;;;;;;;;;;;23.55;66.56;100797.94;7405450;19;1462;-58
2022/06/26 06:25:07;;;;;;;;;;;;;;;23.30;66.33;100770.88;7403134;19;1538;-59
2022/06/26 06:27:35;;;;;;;;;;;;;;;23.28;66.63;100782.81;7402781;19;1504;-58
2022/06/26 06:30:03;;;;;;;;;;;;;;;23.41;65.80;100792.16;7406933;19;1633;-57
2022/06/26 06:32:32;;;;;;;;;;;;;;;23.39;66.32;100772.56;7405668;19;1584;-58
2022/06/26 06:35:00;;;;;;;;;;;;;;;23.31;66.63;100785.22;7402827;19;1345;-59
2022/06/26 06:37:28;;;;;;;;;;;;;;;23.35;66.05;100782.00;7400395;19;1850;-59
2022/06/26 06:39:57;;;;;;;;;;;;;;;23.42;66.13;100793.03;7405460;19;1325;-59
2022/06/26 06:42:28;;;;;;;;;;;;;;;23.43;65.97;100776.63;7406999;19;1597;-59
2022/06/26 06:44:56;;;;;;;;;;;;;;;23.47;65.67;100797.91;7406531;19;1440;-58
2022/06/26 06:47:25;;;;;;;;;;;;;;;23.41;65.79;100789.44;7406479;19;1697;-59
2022/06/26 06:49:53;;;;;;;;;;;;;;;23.46;65.73;100778.19;7403132;19;1517;-59
2022/06/26 06:52:21;;;;;;;;;;;;;;;23.42;65.84;100793.84;7402972;19;1569;-59
2022/06/26 06:54:50;;;;;;;;;;;;;;;23.29;66.25;100784.53;7403935;19;1616;-59
2022/06/26 06:57:18;;;;;;;;;;;;;;;23.23;66.51;100796.81;7402502;19;1850;-59
2022/06/26 06:59:49;;;;;;;;;;;;;;;23.09;66.58;100784.78;7404744;19;1581;-59
2022/06/26 07:02:17;;;;;;;;;;;;;;;23.09;66.81;100789.34;7403835;19;1442;-58
2022/06/26 07:04:46;;;;;;;;;;;;;;;23.19;66.81;100793.59;7404901;19;1727;-58
2022/06/26 07:07:14;;;;;;;;;;;;;;;23.25;66.49;100789.41;7404030;19;1616;-58
2022/06/26 07:09:42;;;;;;;;;;;;;;;23.47;65.75;100784.41;7405218;19;1192;-59
2022/06/26 07:12:11;;;;;;;;;;;;;;;23.56;65.30;100799.63;7405703;19;1404;-59
2022/06/26 07:14:40;;;;;;;;;;;;;;;23.32;66.63;100793.16;7404497;19;1631;-59
2022/06/26 07:17:11;;;;;;;;;;;;;;;22.34;67.14;100787.19;7403228;19;1847;-60
2022/06/26 07:19:39;;;;;;;;;;;;;;;21.43;65.90;100799.78;7403946;19;1688;-58
2022/06/26 07:22:08;;;;;;;;;;;;;;;20.89;65.40;100796.06;7401775;19;1616;-57
2022/06/26 07:24:36;;;;;;;;;;;;;;;20.61;64.50;100801.38;7404082;19;1310;-57
2022/06/26 07:27:05;;;;;;;;;;;;;;;20.48;63.17;100808.00;7405048;19;1625;-59
2022/06/26 07:29:33;;;;;;;;;;;;;;;20.29;62.77;100816.94;7403892;19;1419;-58
2022/06/26 07:32:01;;;;;;;;;;;;;;;20.18;61.81;100808.03;7404795;19;1534;-60
2022/06/26 07:34:32;;;;;;;;;;;;;;;20.02;61.21;100823.88;7404336;19;1783;-60
2022/06/26 07:37:00;;;;;;;;;;;;;;;19.90;60.31;100820.47;7403515;19;1857;-60
2022/06/26 07:39:29;;;;;;;;;;;;;;;19.83;59.55;100822.84;7404371;19;1561;-60
2022/06/26 07:41:57;;;;;;;;;;;;;;;19.75;59.22;100811.97;7404897;19;1620;-58
2022/06/26 07:44:25;;;;;;;;;;;;;;;19.59;58.79;100811.63;7404255;19;1391;-58
2022/06/26 07:46:53;;;;;;;;;;;;;;;19.51;58.48;100820.38;7401385;19;1624;-60
2022/06/26 07:49:22;;;;;;;;;;;;;;;19.47;57.95;100818.94;7402234;19;1479;-58
2022/06/26 07:51:53;;;;;;;;;;;;;;;19.46;57.54;100819.94;7403856;19;1782;-60
2022/06/26 07:54:21;;;;;;;;;;;;;;;19.43;57.34;100826.41;7401990;19;1462;-60
2022/06/26 07:56:50;;;;;;;;;;;;;;;19.42;56.99;100822.03;7402672;19;1867;-59
2022/06/26 07:59:18;;;;;;;;;;;;;;;19.30;56.60;100814.22;7403088;19;1460;-58
2022/06/26 08:01:47;;;;;;;;;;;;;;;19.19;56.86;100836.63;7403163;19;1569;-58
2022/06/26 08:04:15;;;;;;;;;;;;;;;19.14;56.51;100820.09;7404365;19;1635;-59
2022/06/26 08:06:43;;;;;;;;;;;;;;;19.15;56.09;100829.84;7410824;19;1885;-58
2022/06/26 08:09:14;;;;;;;;;;;;;;;19.01;55.70;100821.19;7410965;19;1221;-59
2022/06/26 08:11:42;;;;;;;;;;;;;;;19.03;55.95;100826.41;7411823;19;1439;-58
2022/06/26 08:14:11;;;;;;;;;;;;;;;18.97;55.61;100838.50;7409940;19;1679;-58
2022/06/26 08:16:39;;;;;;;;;;;;;;;19.02;55.91;100847.00;7401699;19;1870;-58
2022/06/26 08:19:07;;;;;;;;;;;;;;;18.97;55.36;100827.78;7407576;19;1474;-60
2022/06/26 08:24:19;;;;;;;;;;;;;;;18.96;55.06;100830.59;7405654;19;1767;-58
2022/06/26 08:26:48;;;;;;;;;;;;;;;20.36;53.86;100852.97;7409246;19;1556;-58
2022/06/26 08:29:16;;;;;;;;;;;;;;;21.32;55.85;100842.97;7406437;19;1525;-57
2022/06/26 08:31:44;;;;;;;;;;;;;;;21.87;56.13;100834.06;7409978;19;1550;-60
2022/06/26 08:34:13;;;;;;;;;;;;;;;22.15;57.11;100840.22;7410001;19;1564;-58
2022/06/26 08:36:41;;;;;;;;;;;;;;;22.28;57.15;100831.75;7406513;19;1850;-60
2022/06/26 08:39:09;;;;;;;;;;;;;;;22.36;57.17;100834.53;7406659;19;1313;-61
2022/06/26 08:41:42;;;;;;;;;;;;;;;22.47;57.56;100837.97;7407498;19;1341;-58
2022/06/26 08:44:12;;;;;;;;;;;;;;;22.53;57.45;100840.88;7408603;19;1570;-58
2022/06/26 08:46:41;;;;;;;;;;;;;;;22.58;56.80;100843.97;7407883;19;1538;-60
2022/06/26 08:49:11;;;;;;;;;;;;;;;22.70;57.38;100841.88;7408368;19;1249;-58
2022/06/26 08:51:41;;;;;;;;;;;;;;;22.69;57.69;100837.47;7404485;19;1585;-61
2022/06/26 08:54:10;;;;;;;;;;;;;;;22.72;58.18;100828.19;7405845;19;1672;-61
2022/06/26 08:56:41;;;;;;;;;;;;;;;22.77;57.50;100852.84;7408197;19;1855;-61
2022/06/26 08:59:12;;;;;;;;;;;;;;;22.80;57.70;100848.00;7409944;19;1494;-61
2022/06/26 09:01:41;;;;;;;;;;;;;;;22.77;59.40;100836.66;7405980;19;1610;-60
2022/06/26 09:04:10;;;;;;;;;;;;;;;22.84;59.99;100840.44;7407325;19;1496;-60
2022/06/26 09:06:39;;;;;;;;;;;;;;;22.84;60.17;100826.97;7400690;19;1535;-60
2022/06/26 09:09:14;;;;;;;;;;;;;;;22.83;60.56;100863.00;7405482;19;1648;-64
2022/06/26 09:11:43;;;;;;;;;;;;;;;22.84;60.55;100856.63;7409695;19;1590;-59
2022/06/26 09:14:15;;;;;;;;;;;;;;;22.92;60.21;100858.50;7408399;19;1518;-57
2022/06/26 09:16:44;;;;;;;;;;;;;;;22.89;60.50;100853.44;7404235;19;1878;-59
2022/06/26 09:19:13;;;;;;;;;;;;;;;22.92;59.90;100851.28;7405581;19;1430;-59
2022/06/26 09:21:42;;;;;;;;;;;;;;;22.99;60.06;100846.91;7407385;19;1632;-58
2022/06/26 09:24:11;;;;;;;;;;;;;;;23.03;60.88;100855.56;7405276;19;1797;-62
2022/06/26 09:26:40;;;;;;;;;;;;;;;23.09;60.40;100851.38;7407112;19;1725;-60
2022/06/26 09:29:11;;;;;;;;;;;;;;;23.14;60.61;100862.53;7405983;19;1639;-62
2022/06/26 09:31:43;;;;;;;;;;;;;;;23.16;60.88;100860.53;7408221;19;1392;-62
2022/06/26 09:34:23;;;;;;;;;;;;;;;23.19;60.83;100850.25;7409189;19;1537;-63
2022/06/26 09:36:57;;;;;;;;;;;;;;;23.25;61.06;100864.94;7407706;19;1842;-62
2022/06/26 09:39:26;;;;;;;;;;;;;;;23.32;61.23;100857.91;7407271;19;1771;-62
2022/06/26 09:41:54;;;;;;;;;;;;;;;23.50;62.25;100881.28;7406655;19;1692;-62
2022/06/26 09:44:23;;;;;;;;;;;;;;;23.37;62.46;100869.03;7406802;19;1497;-59
2022/06/26 09:46:54;;;;;;;;;;;;;;;23.30;62.41;100868.03;7407324;19;1699;-62
2022/06/26 09:49:23;;;;;;;;;;;;;;;23.28;62.01;100872.72;7407989;19;1530;-58
2022/06/26 09:51:51;;;;;;;;;;;;;;;23.27;61.90;100865.63;7407067;19;1399;-61
2022/06/26 09:54:20;;;;;;;;;;;;;;;23.26;62.31;100863.97;7405961;19;1768;-59
2022/06/26 09:56:48;;;;;;;;;;;;;;;23.27;62.05;100871.03;7406671;19;1862;-62
2022/06/26 09:59:16;;;;;;;;;;;;;;;23.27;62.09;100872.88;7405752;19;1676;-58
2022/06/26 10:07:09;;;;;;;;;;;;;;;23.27;62.99;100870.19;7407328;19;1375;-62
2022/06/26 10:09:37;;;;;;;;;;;;;;;23.34;64.26;100860.47;7406998;19;1553;-57
2022/06/26 10:12:07;;;;;;;;;;;;;;;23.30;63.75;100862.63;7406292;19;1703;-58
2022/06/26 10:14:38;;;;;;;;;;;;;;;23.31;64.05;100872.41;7406096;19;1593;-62
2022/06/26 10:17:14;;;;;;;;;;;;;;;23.29;64.03;100869.00;7405367;19;1846;-58
2022/06/26 10:19:47;;;;;;;;;;;;;;;23.42;65.01;100876.69;7406311;19;1770;-62
2022/06/26 10:22:16;;;;;;;;;;;;;;;23.48;64.22;100856.28;7407228;19;1561;-62
2022/06/26 10:24:55;;;;;;;;;;;;;;;23.58;64.57;100867.81;7405647;19;1522;-60
2022/06/26 10:27:27;;;;;;;;;;;;;;;23.55;64.23;100863.56;7407276;19;1443;-59
2022/06/26 10:30:05;;;;;;;;;;;;;;;23.23;67.52;100864.25;7404612;19;1416;-57
2022/06/26 10:32:34;;;;;;;;;;;;;;;22.39;66.67;100865.69;7406274;19;1467;-57
2022/06/26 10:35:05;;;;;;;;;;;;;;;21.89;64.74;100868.91;7403649;19;1617;-74
2022/06/26 10:37:44;;;;;;;;;;;;;;;21.59;64.35;100866.38;7410340;19;1859;-66
2022/06/26 10:42:52;;;;;;;;;;;;;;;21.25;63.66;100869.63;7403202;19;1510;-61
2022/06/26 10:43:03;;;;;;;;;;;;;;;21.00;62.78;100859.53;7400213;19;1268;-60
2022/06/26 10:45:32;;;;;;;;;;;;;;;20.88;62.17;100852.63;7400914;19;1328;-61
2022/06/26 10:48:02;;;;;;;;;;;;;;;20.75;61.44;100842.19;7405135;19;1351;-61
2022/06/26 10:50:36;;;;;;;;;;;;;;;20.64;60.57;100852.13;7403891;19;1363;-66
2022/06/26 10:53:18;;;;;;;;;;;;;;;20.51;60.12;100848.00;7403950;19;1311;-61
2022/06/26 10:55:48;;;;;;;;;;;;;;;20.45;59.35;100825.25;7405193;19;1380;-60
2022/06/26 10:58:21;;;;;;;;;;;;;;;20.42;58.76;100838.97;7401360;19;1865;-60
2022/06/26 11:02:41;;;;;;;;;;;;;;;21.45;57.18;100819.31;7418672;19;1508;-66
2022/06/26 11:05:11;;;;;;;;;;;;;;;22.17;56.40;100837.38;7429398;19;1793;-59
2022/06/26 11:07:43;;;;;;;;;;;;;;;22.50;56.34;100835.81;7435658;19;1523;-63
2022/06/26 11:10:13;;;;;;;;;;;;;;;22.80;56.46;100821.03;7433316;19;1479;-65
2022/06/26 11:12:41;;;;;;;;;;;;;;;22.92;57.14;100813.50;7425930;19;1560;-66
2022/06/26 11:15:21;;;;;;;;;;;;;;;22.96;57.29;100814.00;7424893;19;1386;-58
2022/06/26 11:18:03;;;;;;;;;;;;;;;22.99;56.90;100817.25;7425976;19;1454;-58
2022/06/26 11:20:53;;;;;;;;;;;;;;;23.06;57.60;100819.31;7426065;19;1853;-59
2022/06/26 11:23:23;;;;;;;;;;;;;;;23.12;58.47;100818.69;7430514;19;1286;-65
2022/06/26 11:25:52;;;;;;;;;;;;;;;23.16;58.11;100818.22;7432927;19;1356;-63
2022/06/26 11:28:21;;;;;;;;;;;;;;;23.21;58.89;100812.31;7438303;19;1737;-64
2022/06/26 11:30:49;;;;;;;;;;;;;;;23.24;58.93;100828.19;7433317;19;1604;-64
2022/06/26 11:33:27;;;;;;;;;;;;;;;23.26;58.63;100828.00;7433704;19;1554;-62
2022/06/26 11:35:56;;;;;;;;;;;;;;;23.27;58.98;100827.84;7438143;19;1614;-62
2022/06/26 11:38:24;;;;;;;;;;;;;;;23.17;59.77;100817.19;7437733;19;1455;-57
2022/06/26 11:40:53;;;;;;;;;;;;;;;23.20;59.84;100821.44;7432762;19;1841;-56
2022/06/26 11:43:21;;;;;;;;;;;;;;;23.22;59.97;100827.50;7435086;19;1503;-59
2022/06/26 11:45:50;;;;;;;;;;;;;;;23.23;60.61;100827.34;7436805;19;1314;-58
2022/06/26 11:48:22;;;;;;;;;;;;;;;23.25;60.32;100837.97;7439063;19;1504;-57
2022/06/26 11:50:55;;;;;;;;;;;;;;;23.28;60.65;100821.47;7438552;19;1277;-60
2022/06/26 11:53:25;;;;;;;;;;;;;;;23.29;61.03;100830.41;7438396;19;1317;-67
2022/06/26 11:55:54;;;;;;;;;;;;;;;23.30;60.46;100821.28;7439869;19;1364;-64
2022/06/26 11:58:24;;;;;;;;;;;;;;;23.33;60.73;100824.50;7438415;19;1669;-59
2022/06/26 12:00:53;;;;;;;;;;;;;;;23.31;60.96;100841.88;7437078;19;1822;-64
2022/06/26 12:03:21;;;;;;;;;;;;;;;23.35;61.02;100845.94;7438397;19;1630;-59
2022/06/26 12:05:49;;;;;;;;;;;;;;;23.29;61.27;100842.03;7437604;19;1676;-59
2022/06/26 12:08:21;;;;;;;;;;;;;;;23.31;60.97;100831.91;7438336;19;1236;-58
2022/06/26 12:10:51;;;;;;;;;;;;;;;23.38;61.18;100834.84;7439854;19;1478;-64
2022/06/26 12:13:24;;;;;;;;;;;;;;;23.35;61.47;100838.69;7417825;19;1443;-59
2022/06/26 12:15:53;;;;;;;;;;;;;;;23.36;61.74;100851.19;7411045;19;1533;-63
2022/06/26 12:18:21;;;;;;;;;;;;;;;23.36;61.60;100844.94;7409768;19;1732;-62
2022/06/26 12:20:52;;;;;;;;;;;;;;;23.36;61.60;100842.25;7407098;19;1882;-59
2022/06/26 12:23:32;;;;;;;;;;;;;;;23.36;61.60;100848.47;7409282;19;1677;-59
2022/06/26 12:26:08;;;;;;;;;;;;;;;23.37;61.79;100847.47;7406348;19;1661;-60
2022/06/26 12:28:44;;;;;;;;;;;;;;;23.32;62.03;100852.50;7405818;19;1720;-64
2022/06/26 12:31:13;;;;;;;;;;;;;;;23.36;62.06;100861.97;7407371;19;1541;-59
2022/06/26 12:33:41;;;;;;;;;;;;;;;23.37;62.31;100857.41;7409243;19;1408;-68
2022/06/26 12:36:10;;;;;;;;;;;;;;;23.33;62.57;100867.69;7405938;19;1510;-68
2022/06/26 12:38:41;;;;;;;;;;;;;;;23.33;62.81;100874.94;7412093;19;1452;-60
2022/06/26 12:41:16;;;;;;;;;;;;;;;23.33;62.72;100858.75;7406651;19;1848;-62
2022/06/26 12:43:45;;;;;;;;;;;;;;;23.32;63.06;100860.63;7406303;19;1614;-63
2022/06/26 12:46:13;;;;;;;;;;;;;;;23.36;62.90;100863.84;7407480;19;1542;-64
2022/06/26 12:48:41;;;;;;;;;;;;;;;23.35;62.95;100862.97;7409443;19;1545;-69
2022/06/26 12:51:10;;;;;;;;;;;;;;;23.36;63.10;100864.69;7409942;19;1707;-58
2022/06/26 12:53:42;;;;;;;;;;;;;;;23.39;62.74;100867.03;7406238;19;1311;-63
2022/06/26 12:56:11;;;;;;;;;;;;;;;23.41;62.78;100870.41;7406012;19;1343;-59
2022/06/26 12:58:40;;;;;;;;;;;;;;;23.39;62.89;100858.94;7407781;19;1638;-59
2022/06/26 13:01:08;;;;;;;;;;;;;;;23.40;63.29;100857.09;7400034;19;1864;-64
2022/06/26 13:03:37;;;;;;;;;;;;;;;23.45;63.23;100881.75;7405695;19;1609;-66
2022/06/26 13:06:06;;;;;;;;;;;;;;;23.40;63.44;100867.91;7408086;19;1313;-68
2022/06/26 13:08:34;;;;;;;;;;;;;;;23.42;63.51;100869.41;7403171;19;1688;-70
2022/06/26 13:13:46;;;;;;;;;;;;;;;23.41;63.83;100874.97;7405338;19;1491;-65
2022/06/26 13:16:15;;;;;;;;;;;;;;;23.41;63.61;100869.56;7408266;19;1201;-70
2022/06/26 13:18:44;;;;;;;;;;;;;;;23.43;63.98;100881.06;7407094;19;1273;-65
2022/06/26 13:21:12;;;;;;;;;;;;;;;23.45;63.26;100891.69;7408697;19;1857;-63
2022/06/26 13:23:41;;;;;;;;;;;;;;;23.42;63.91;100880.22;7407891;19;1304;-71
2022/06/26 13:26:12;;;;;;;;;;;;;;;23.44;63.59;100885.47;7411691;19;1395;-67